createdAt,value
2018-09-25T00:02:11.564Z,6.80
2018-09-25T00:04:46.162Z,6.80
2018-09-25T00:07:20.667Z,6.70
2018-09-25T00:09:55.697Z,6.70
2018-09-25T00:12:30.108Z,6.60
2018-09-25T00:15:05.281Z,6.60
2018-09-25T00:17:39.654Z,6.60
2018-09-25T00:20:18.190Z,6.60
2018-09-25T00:22:52.784Z,6.70
2018-09-25T00:25:35.174Z,6.70
2018-09-25T00:28:10.878Z,6.80
2018-09-25T00:30:45.450Z,6.90
2018-09-25T00:33:20.448Z,6.90
2018-09-25T00:35:56.375Z,6.90
2018-09-25T00:38:33.759Z,6.90
2018-09-25T00:41:08.381Z,6.90
2018-09-25T00:43:42.821Z,6.80
2018-09-25T00:46:17.137Z,6.80
2018-09-25T00:48:51.547Z,6.80
2018-09-25T00:51:26.140Z,6.70
2018-09-25T00:54:00.678Z,6.70
2018-09-25T00:56:35.132Z,6.60
2018-09-25T00:59:09.739Z,6.70
2018-09-25T01:01:44.292Z,6.80
2018-09-25T01:04:25.489Z,6.90
2018-09-25T01:07:00.797Z,6.90
2018-09-25T01:09:35.211Z,6.90
2018-09-25T01:12:09.564Z,7.00
2018-09-25T01:14:44.078Z,7.00
2018-09-25T01:17:20.262Z,7.00
2018-09-25T01:19:56.604Z,7.00
2018-09-25T01:22:31.151Z,7.00
2018-09-25T01:25:05.728Z,6.90
2018-09-25T01:27:40.476Z,6.80
2018-09-25T01:30:14.925Z,6.70
2018-09-25T01:32:49.480Z,6.60
2018-09-25T01:35:23.852Z,6.50
2018-09-25T01:37:59.196Z,6.50
2018-09-25T01:40:34.942Z,6.50
2018-09-25T01:43:10.150Z,6.50
2018-09-25T01:45:44.400Z,6.40
2018-09-25T01:48:18.964Z,6.40
2018-09-25T01:50:54.241Z,6.40
2018-09-25T01:53:29.787Z,6.40
2018-09-25T01:56:04.418Z,6.40
2018-09-25T01:58:38.884Z,6.40
2018-09-25T02:01:13.453Z,6.50
2018-09-25T02:03:50.154Z,6.40
2018-09-25T02:06:24.770Z,6.40
2018-09-25T02:08:59.159Z,6.40
2018-09-25T02:11:33.969Z,6.30
2018-09-25T02:14:09.295Z,6.30
2018-09-25T02:16:44.251Z,6.30
2018-09-25T02:19:19.177Z,6.30
2018-09-25T02:21:54.882Z,6.20
2018-09-25T02:24:29.662Z,6.20
2018-09-25T02:27:04.260Z,6.20
2018-09-25T02:29:38.573Z,6.20
2018-09-25T02:32:13.587Z,6.20
2018-09-25T02:34:48.013Z,6.20
2018-09-25T02:37:22.666Z,6.20
2018-09-25T02:39:57.125Z,6.20
2018-09-25T02:42:31.508Z,6.30
2018-09-25T02:45:07.064Z,6.20
2018-09-25T02:47:42.857Z,6.20
2018-09-25T02:50:18.558Z,6.20
2018-09-25T02:52:53.101Z,6.20
2018-09-25T02:55:27.585Z,6.20
2018-09-25T02:58:02.405Z,6.20
2018-09-25T03:00:36.665Z,6.20
2018-09-25T03:03:11.186Z,6.20
2018-09-25T03:05:46.231Z,6.20
2018-09-25T03:08:20.618Z,6.10
2018-09-25T03:10:57.380Z,6.10
2018-09-25T03:13:32.155Z,6.10
2018-09-25T03:16:06.437Z,6.10
2018-09-25T03:18:41.143Z,6.10
2018-09-25T03:21:15.565Z,6.10
2018-09-25T03:23:51.902Z,6.10
2018-09-25T03:26:26.492Z,6.10
2018-09-25T03:29:00.862Z,6.10
2018-09-25T03:31:35.422Z,6.10
2018-09-25T03:34:09.981Z,6.10
2018-09-25T03:36:44.377Z,6.10
2018-09-25T03:39:19.454Z,6.20
2018-09-25T03:41:53.942Z,6.20
2018-09-25T03:44:29.041Z,6.30
2018-09-25T03:47:03.732Z,6.20
2018-09-25T03:49:38.358Z,6.20
2018-09-25T03:52:13.177Z,6.10
2018-09-25T03:54:48.412Z,6.10
2018-09-25T03:57:22.823Z,6.10
2018-09-25T03:59:57.367Z,6.10
2018-09-25T04:02:31.781Z,6.00
2018-09-25T04:05:06.331Z,6.00
2018-09-25T04:07:40.922Z,6.00
2018-09-25T04:10:15.715Z,6.00
2018-09-25T04:12:50.075Z,6.00
2018-09-25T04:15:25.525Z,6.00
2018-09-25T04:18:19.000Z,6.00
2018-09-25T04:20:54.690Z,6.00
2018-09-25T04:23:29.270Z,5.90
2018-09-25T04:26:12.990Z,6.00
2018-09-25T04:28:48.181Z,6.00
2018-09-25T04:31:22.673Z,6.00
2018-09-25T04:33:57.177Z,6.00
2018-09-25T04:45:58.237Z,5.90
2018-09-25T04:51:28.656Z,5.90
2018-09-25T04:54:03.594Z,5.90
2018-09-25T04:56:39.353Z,5.90
2018-09-25T04:59:24.071Z,5.90
2018-09-25T05:02:17.055Z,5.90
2018-09-25T05:04:55.992Z,5.80
2018-09-25T05:07:33.981Z,5.90
2018-09-25T05:10:10.511Z,5.90
2018-09-25T05:12:48.577Z,5.80
2018-09-25T05:15:24.793Z,5.80
2018-09-25T05:21:13.559Z,5.90
2018-09-25T05:23:49.727Z,5.90
2018-09-25T05:26:25.719Z,5.90
2018-09-25T05:29:03.012Z,5.90
2018-09-25T05:31:38.489Z,6.00
2018-09-25T05:34:13.575Z,6.00
2018-09-25T05:36:52.656Z,6.00
2018-09-25T05:39:28.607Z,6.00
2018-09-25T05:42:06.889Z,6.10
2018-09-25T05:44:53.772Z,6.10
2018-09-25T05:47:28.497Z,6.20
2018-09-25T05:50:03.303Z,6.20
2018-09-25T05:52:37.794Z,6.20
2018-09-25T05:55:12.376Z,6.20
2018-09-25T05:57:47.078Z,6.20
2018-09-25T06:00:22.203Z,6.30
2018-09-25T06:03:02.949Z,6.30
2018-09-25T06:05:39.007Z,6.40
2018-09-25T06:08:13.401Z,6.40
2018-09-25T06:10:47.898Z,6.40
2018-09-25T06:13:25.190Z,6.50
2018-09-25T06:15:59.605Z,6.50
2018-09-25T06:18:34.159Z,6.50
2018-09-25T06:21:08.563Z,6.60
2018-09-25T06:23:43.704Z,6.60
2018-09-25T06:26:18.596Z,6.70
2018-09-25T06:28:56.086Z,6.70
2018-09-25T06:31:31.029Z,6.80
2018-09-25T06:34:05.627Z,6.80
2018-09-25T06:36:40.750Z,6.90
2018-09-25T06:39:15.172Z,7.00
2018-09-25T06:41:49.857Z,7.00
2018-09-25T06:44:24.891Z,7.00
2018-09-25T06:46:59.373Z,7.00
2018-09-25T06:49:33.869Z,7.10
2018-09-25T06:52:08.599Z,7.10
2018-09-25T06:54:44.106Z,7.10
2018-09-25T06:57:18.620Z,7.10
2018-09-25T06:59:53.485Z,7.10
2018-09-25T07:02:28.014Z,7.20
2018-09-25T07:05:02.743Z,7.20
2018-09-25T07:07:37.182Z,7.20
2018-09-25T07:10:12.500Z,7.30
2018-09-25T07:12:47.680Z,7.30
2018-09-25T07:15:22.616Z,7.40
2018-09-25T07:17:58.201Z,7.50
2018-09-25T07:20:35.738Z,7.50
2018-09-25T07:23:10.542Z,7.60
2018-09-25T07:25:45.121Z,7.60
2018-09-25T07:28:20.420Z,7.70
2018-09-25T07:30:54.811Z,7.70
2018-09-25T07:33:29.234Z,7.80
2018-09-25T07:36:03.980Z,7.90
2018-09-25T07:38:38.867Z,7.90
2018-09-25T07:41:13.219Z,8.00
2018-09-25T07:43:48.043Z,8.00
2018-09-25T07:46:22.740Z,8.10
2018-09-25T07:48:57.210Z,8.10
2018-09-25T07:51:33.431Z,8.20
2018-09-25T07:54:07.903Z,8.30
2018-09-25T07:56:42.591Z,8.40
2018-09-25T07:59:17.176Z,8.50
2018-09-25T08:01:51.825Z,8.60
2018-09-25T08:04:26.496Z,8.70
2018-09-25T08:07:01.178Z,8.70
2018-09-25T08:09:42.248Z,8.80
2018-09-25T08:12:18.183Z,8.90
2018-09-25T08:14:52.835Z,9.00
2018-09-25T08:17:27.742Z,9.10
2018-09-25T08:20:02.176Z,9.20
2018-09-25T08:22:36.887Z,9.20
2018-09-25T08:25:11.346Z,9.30
2018-09-25T08:27:45.811Z,9.40
2018-09-25T08:30:20.155Z,9.50
2018-09-25T08:32:54.757Z,9.50
2018-09-25T08:35:29.321Z,9.60
2018-09-25T08:38:04.642Z,9.70
2018-09-25T08:40:39.295Z,9.80
2018-09-25T08:43:13.773Z,9.80
2018-09-25T08:45:49.247Z,9.80
2018-09-25T08:48:23.898Z,9.90
2018-09-25T08:50:58.322Z,10.00
2018-09-25T08:53:32.838Z,10.10
2018-09-25T08:56:07.353Z,10.20
2018-09-25T08:58:42.800Z,10.30
2018-09-25T09:01:17.281Z,10.40
2018-09-25T09:03:52.003Z,10.50
2018-09-25T09:06:26.810Z,10.50
2018-09-25T09:09:02.024Z,10.60
2018-09-25T09:11:37.693Z,10.60
2018-09-25T09:14:12.254Z,10.70
2018-09-25T09:16:46.688Z,10.80
2018-09-25T09:19:21.188Z,10.90
2018-09-25T09:21:56.359Z,11.00
2018-09-25T09:24:30.827Z,11.10
2018-09-25T09:27:05.390Z,11.10
2018-09-25T09:29:39.981Z,11.20
2018-09-25T09:32:15.340Z,11.20
2018-09-25T09:34:50.689Z,11.30
2018-09-25T09:37:26.371Z,11.30
2018-09-25T09:40:00.835Z,11.40
2018-09-25T09:42:35.399Z,11.40
2018-09-25T09:45:10.331Z,11.40
2018-09-25T09:47:44.886Z,11.50
2018-09-25T09:50:19.470Z,11.60
2018-09-25T09:52:55.149Z,11.60
2018-09-25T09:55:29.806Z,11.70
2018-09-25T09:58:04.340Z,11.80
2018-09-25T10:00:39.273Z,11.90
2018-09-25T10:03:13.767Z,12.00
2018-09-25T10:05:48.740Z,12.10
2018-09-25T10:08:23.390Z,12.20
2018-09-25T10:10:58.875Z,12.30
2018-09-25T10:13:33.499Z,12.50
2018-09-25T10:16:08.253Z,12.70
2018-09-25T10:18:42.542Z,12.90
2018-09-25T10:21:18.332Z,12.90
2018-09-25T10:23:53.190Z,12.90
2018-09-25T10:26:27.889Z,12.90
2018-09-25T10:29:03.385Z,13.00
2018-09-25T10:31:38.076Z,13.00
2018-09-25T10:34:14.639Z,13.10
2018-09-25T10:36:50.347Z,13.10
2018-09-25T10:39:25.475Z,13.20
2018-09-25T10:42:00.319Z,13.30
2018-09-25T10:44:34.779Z,13.10
2018-09-25T10:47:09.231Z,13.10
2018-09-25T10:49:43.488Z,13.10
2018-09-25T10:52:18.074Z,13.20
2018-09-25T10:54:52.799Z,13.30
2018-09-25T10:57:27.867Z,13.50
2018-09-25T11:00:02.654Z,13.70
2018-09-25T11:02:37.014Z,13.80
2018-09-25T11:05:11.479Z,14.00
2018-09-25T11:07:46.615Z,14.10
2018-09-25T11:10:21.124Z,14.20
2018-09-25T11:12:55.638Z,14.40
2018-09-25T11:15:30.022Z,14.60
2018-09-25T11:18:08.746Z,14.60
2018-09-25T11:29:17.399Z,14.70
2018-09-25T11:31:52.011Z,14.80
2018-09-25T11:34:26.495Z,14.90
2018-09-25T11:37:01.906Z,15.10
2018-09-25T11:39:36.268Z,15.30
2018-09-25T11:42:11.498Z,15.30
2018-09-25T11:44:46.079Z,15.30
2018-09-25T11:47:20.651Z,15.20
2018-09-25T11:49:55.380Z,15.20
2018-09-25T11:52:30.027Z,15.20
2018-09-25T11:55:04.609Z,15.30
2018-09-25T11:57:39.141Z,15.10
2018-09-25T12:00:17.360Z,14.90
2018-09-25T12:02:51.841Z,14.90
2018-09-25T12:05:26.393Z,14.80
2018-09-25T12:08:00.947Z,14.70
2018-09-25T12:10:35.458Z,14.60
2018-09-25T12:13:09.990Z,14.50
2018-09-25T12:15:44.979Z,14.50
2018-09-25T12:18:20.362Z,14.60
2018-09-25T12:20:54.775Z,14.70
2018-09-25T12:23:29.429Z,14.80
2018-09-25T12:26:03.850Z,15.10
2018-09-25T12:28:38.592Z,14.90
2018-09-25T12:31:13.074Z,15.00
2018-09-25T12:33:47.867Z,14.80
2018-09-25T12:36:22.542Z,14.80
2018-09-25T12:38:56.914Z,14.70
2018-09-25T12:41:31.304Z,14.90
2018-09-25T12:44:05.820Z,15.10
2018-09-25T12:46:40.307Z,15.20
2018-09-25T12:49:15.298Z,15.40
2018-09-25T12:51:50.155Z,15.40
2018-09-25T12:54:25.727Z,15.50
2018-09-25T12:57:01.555Z,15.60
2018-09-25T12:59:36.433Z,15.60
2018-09-25T13:02:11.031Z,15.60
2018-09-25T13:04:46.088Z,15.60
2018-09-25T13:07:20.463Z,15.60
2018-09-25T13:09:54.800Z,15.60
2018-09-25T13:12:29.352Z,15.70
2018-09-25T13:15:03.726Z,15.70
2018-09-25T13:17:38.051Z,15.90
2018-09-25T13:20:12.721Z,16.00
2018-09-25T13:22:47.249Z,15.90
2018-09-25T13:25:21.792Z,15.80
2018-09-25T13:27:56.274Z,15.70
2018-09-25T13:30:32.468Z,15.70
2018-09-25T13:33:07.880Z,15.80
2018-09-25T13:35:43.588Z,15.90
2018-09-25T13:38:18.268Z,15.90
2018-09-25T13:40:52.717Z,15.90
2018-09-25T13:43:27.135Z,15.90
2018-09-25T13:46:01.495Z,15.90
2018-09-25T13:48:35.979Z,16.00
2018-09-25T13:51:10.176Z,15.80
2018-09-25T13:53:44.621Z,15.90
2018-09-25T13:56:19.138Z,16.00
2018-09-25T13:58:53.541Z,16.00
2018-09-25T14:01:29.207Z,15.90
2018-09-25T14:04:03.649Z,15.90
2018-09-25T14:06:39.613Z,15.90
2018-09-25T14:09:14.797Z,15.80
2018-09-25T14:11:49.918Z,15.80
2018-09-25T14:14:24.585Z,15.80
2018-09-25T14:17:00.292Z,15.90
2018-09-25T14:19:35.191Z,15.90
2018-09-25T14:22:09.667Z,15.90
2018-09-25T14:24:47.346Z,15.80
2018-09-25T14:27:22.081Z,15.80
2018-09-25T14:29:57.126Z,15.80
2018-09-25T14:32:31.757Z,15.60
2018-09-25T14:35:06.342Z,15.60
2018-09-25T14:37:40.763Z,15.50
2018-09-25T14:40:15.247Z,15.30
2018-09-25T14:42:49.570Z,15.30
2018-09-25T14:45:24.238Z,15.40
2018-09-25T14:47:58.807Z,15.40
2018-09-25T14:50:34.089Z,15.40
2018-09-25T14:53:08.681Z,15.30
2018-09-25T14:55:57.569Z,15.30
2018-09-25T14:58:34.615Z,15.30
2018-09-25T15:01:09.371Z,15.40
2018-09-25T15:06:56.887Z,15.60
2018-09-25T15:09:32.265Z,15.60
2018-09-25T15:12:07.984Z,15.60
2018-09-25T15:14:42.403Z,15.60
2018-09-25T15:17:16.874Z,15.50
2018-09-25T15:19:51.349Z,15.50
2018-09-25T15:22:26.295Z,15.40
2018-09-25T15:25:03.408Z,15.20
2018-09-25T15:27:37.923Z,15.10
2018-09-25T15:30:12.407Z,15.00
2018-09-25T15:32:47.142Z,14.90
2018-09-25T15:35:21.713Z,14.90
2018-09-25T15:37:56.278Z,14.90
2018-09-25T15:40:31.094Z,14.90
2018-09-25T15:43:05.588Z,14.70
2018-09-25T15:45:40.025Z,14.70
2018-09-25T15:48:15.191Z,14.70
2018-09-25T15:50:49.795Z,14.60
2018-09-25T15:53:24.590Z,14.70
2018-09-25T15:58:58.378Z,14.70
2018-09-25T16:04:35.399Z,14.70
2018-09-25T16:07:16.627Z,14.60
2018-09-25T16:10:07.006Z,14.60
2018-09-25T16:15:40.391Z,14.50
2018-09-25T16:18:17.162Z,14.50
2018-09-25T16:20:53.031Z,14.40
2018-09-25T16:26:13.840Z,14.30
2018-09-25T16:28:49.330Z,14.30
2018-09-25T16:31:25.058Z,14.20
2018-09-25T16:34:11.061Z,14.20
2018-09-25T16:37:00.808Z,14.20
2018-09-25T16:39:44.601Z,14.10
2018-09-25T16:48:28.853Z,13.90
2018-09-25T16:57:40.932Z,13.60
2018-09-25T17:00:15.779Z,13.50
2018-09-25T17:02:54.911Z,13.40
2018-09-25T17:40:22.084Z,13.40
2018-09-25T17:43:00.430Z,13.50
2018-09-25T17:45:34.834Z,13.60
2018-09-25T17:48:10.243Z,13.60
2018-09-25T17:50:45.823Z,13.60
2018-09-25T17:53:21.898Z,13.60
2018-09-25T17:55:56.187Z,13.50
2018-09-25T17:58:30.642Z,13.60
2018-09-25T18:01:05.061Z,13.60
2018-09-25T18:03:39.503Z,13.60
2018-09-25T18:06:13.924Z,13.60
2018-09-25T18:08:48.281Z,13.60
2018-09-25T18:11:22.608Z,13.60
2018-09-25T18:13:57.190Z,13.60
2018-09-25T18:16:31.736Z,13.50
2018-09-25T18:19:06.244Z,13.50
2018-09-25T18:21:40.748Z,13.50
2018-09-25T18:24:15.193Z,13.50
2018-09-25T18:26:49.595Z,13.50
2018-09-25T18:29:23.961Z,13.50
2018-09-25T18:31:58.570Z,13.50
2018-09-25T18:34:32.930Z,13.50
2018-09-25T18:37:07.554Z,13.50
2018-09-25T18:39:42.204Z,13.40
2018-09-25T18:42:17.676Z,13.40
2018-09-25T18:44:52.132Z,13.40
2018-09-25T18:47:27.710Z,13.40
2018-09-25T18:50:02.269Z,13.30
2018-09-25T18:52:36.641Z,13.30
2018-09-25T18:55:11.066Z,13.30
2018-09-25T18:57:45.676Z,13.20
2018-09-25T19:00:20.367Z,13.20
2018-09-25T19:02:56.991Z,13.20
2018-09-25T19:05:31.568Z,13.10
2018-09-25T19:08:06.055Z,13.10
2018-09-25T19:10:40.398Z,13.10
2018-09-25T19:13:14.951Z,13.10
2018-09-25T19:15:49.531Z,13.00
2018-09-25T19:18:23.933Z,12.90
2018-09-25T19:20:58.382Z,12.80
2018-09-25T19:23:32.822Z,12.70
2018-09-25T19:26:07.776Z,12.60
2018-09-25T19:28:42.159Z,12.60
2018-09-25T19:31:16.656Z,12.50
2018-09-25T19:33:51.480Z,12.40
2018-09-25T19:36:25.889Z,12.40
2018-09-25T19:39:00.266Z,12.40
2018-09-25T19:41:34.755Z,12.30
2018-09-25T19:44:10.328Z,12.20
2018-09-25T19:46:44.855Z,12.20
2018-09-25T19:49:19.121Z,12.10
2018-09-25T19:51:53.649Z,12.00
2018-09-25T19:54:28.191Z,11.90
2018-09-25T19:57:02.684Z,11.80
2018-09-25T19:59:37.095Z,11.70
2018-09-25T20:02:11.508Z,11.60
2018-09-25T20:04:46.156Z,11.50
2018-09-25T20:07:20.647Z,11.40
2018-09-25T20:09:57.549Z,11.30
2018-09-25T20:12:32.153Z,11.20
2018-09-25T20:15:06.916Z,11.20
2018-09-25T20:17:41.312Z,11.10
2018-09-25T20:20:15.953Z,11.10
2018-09-25T20:22:51.409Z,11.00
2018-09-25T20:25:25.957Z,11.00
2018-09-25T20:28:01.937Z,11.00
2018-09-25T20:30:36.387Z,11.00
2018-09-25T20:33:11.005Z,11.00
2018-09-25T20:35:45.554Z,10.90
2018-09-25T20:38:21.188Z,10.80
2018-09-25T20:40:55.836Z,10.90
2018-09-25T20:43:30.352Z,10.90
2018-09-25T20:46:05.876Z,10.90
2018-09-25T20:48:40.395Z,10.90
2018-09-25T20:51:14.752Z,10.90
2018-09-25T20:53:49.357Z,11.00
2018-09-25T20:56:24.702Z,11.00
2018-09-25T20:58:59.103Z,11.00
2018-09-25T21:01:33.568Z,11.00
2018-09-25T21:04:07.827Z,11.00
2018-09-25T21:06:42.402Z,11.00
2018-09-25T21:09:30.263Z,11.10
2018-09-25T21:12:19.638Z,11.10
2018-09-25T21:14:54.314Z,11.10
2018-09-25T21:17:30.230Z,11.10
2018-09-25T21:20:05.284Z,11.10
2018-09-25T21:22:39.708Z,11.10
2018-09-25T21:25:14.489Z,11.10
2018-09-25T21:27:58.050Z,11.10
2018-09-25T21:30:42.183Z,11.10
2018-09-25T21:33:17.981Z,11.10
2018-09-25T21:35:52.564Z,11.00
2018-09-25T21:38:27.077Z,11.10
2018-09-25T21:41:01.598Z,11.10
2018-09-25T21:43:36.022Z,11.10
2018-09-25T21:46:22.808Z,11.10
2018-09-25T21:48:58.626Z,11.10
2018-09-25T21:51:33.846Z,11.10
2018-09-25T21:54:08.324Z,11.10
2018-09-25T21:56:42.979Z,11.00
2018-09-25T21:59:17.751Z,11.00
2018-09-25T22:01:52.325Z,11.00
2018-09-25T22:04:26.595Z,10.90
2018-09-25T22:07:02.178Z,10.80
2018-09-25T22:09:37.498Z,10.80
2018-09-25T22:12:12.186Z,10.80
2018-09-25T22:14:46.631Z,10.80
2018-09-25T22:17:22.056Z,10.80
2018-09-25T22:19:56.352Z,10.70
2018-09-25T22:22:30.678Z,10.70
2018-09-25T22:25:06.803Z,10.70
2018-09-25T22:27:41.276Z,10.70
2018-09-25T22:30:16.468Z,10.70
2018-09-25T22:32:51.202Z,10.70
2018-09-25T22:35:25.642Z,10.80
2018-09-25T22:38:00.463Z,10.80
2018-09-25T22:40:35.921Z,10.90
2018-09-25T22:43:13.835Z,10.90
2018-09-25T22:45:48.153Z,10.90
2018-09-25T22:48:22.857Z,10.90
2018-09-25T22:50:57.767Z,10.90
2018-09-25T22:53:32.185Z,10.80
2018-09-25T22:56:06.811Z,10.90
2018-09-25T22:58:42.742Z,10.90
2018-09-25T23:01:17.485Z,10.90
2018-09-25T23:03:52.234Z,10.90
2018-09-25T23:06:28.042Z,10.90
2018-09-25T23:09:03.137Z,11.00
2018-09-25T23:11:37.735Z,11.00
2018-09-25T23:14:12.112Z,11.00
2018-09-25T23:16:47.531Z,11.00
2018-09-25T23:19:22.141Z,11.00
2018-09-25T23:21:56.925Z,11.00
2018-09-25T23:24:31.329Z,11.00
2018-09-25T23:27:05.576Z,11.10
2018-09-25T23:29:41.197Z,11.10
2018-09-25T23:32:16.922Z,11.10
2018-09-25T23:34:59.193Z,11.00
2018-09-25T23:37:39.618Z,11.00
2018-09-25T23:40:14.876Z,11.00
2018-09-25T23:42:52.163Z,11.00
2018-09-25T23:46:00.779Z,11.00
2018-09-25T23:48:37.358Z,11.00
2018-09-25T23:51:12.619Z,11.10
2018-09-25T23:53:44.502Z,11.10
2018-09-25T23:56:37.991Z,11.00
2018-09-25T23:59:14.243Z,11.00
